Time;durP1;ratioP1;P1;durP2;ratioP2;P2;SDS_P1;SDS_P2;PMS_P1;PMS_P2;Temp;Humidity;BMP_temperature;BMP_pressure;BME280_temperature;BME280_humidity;BME280_pressure;Samples;Min_cycle;Max_cycle;Signal;HPM_P1;HPM_P2
2022/05/31 00:01:58;;;;;;;5.63;3.85;;;8.70;99.90;;;;;;5271600;27;20058;-69
2022/05/31 00:04:31;;;;;;;5.82;4.63;;;8.70;99.90;;;;;;5170487;27;20051;-69
2022/05/31 00:07:04;;;;;;;6.13;4.35;;;8.60;99.90;;;;;;5271965;27;20052;-69
2022/05/31 00:09:37;;;;;;;7.00;4.82;;;8.60;99.90;;;;;;5272794;27;20043;-69
2022/05/31 00:12:10;;;;;;;7.85;4.35;;;8.60;99.90;;;;;;5260821;27;20047;-70
2022/05/31 00:14:42;;;;;;;5.13;4.63;;;8.60;99.90;;;;;;5259795;27;20491;-69
2022/05/31 00:17:15;;;;;;;5.53;4.18;;;8.50;99.90;;;;;;5270817;28;20040;-68
2022/05/31 00:19:48;;;;;;;6.33;4.30;;;8.50;99.90;;;;;;5263143;28;20051;-68
2022/05/31 00:22:23;;;;;;;4.25;3.78;;;8.50;99.90;;;;;;5268780;28;20138;-69
2022/05/31 00:24:55;;;;;;;5.53;4.00;;;8.60;99.90;;;;;;5269270;28;20997;-68
2022/05/31 00:27:28;;;;;;;6.63;4.07;;;8.70;99.90;;;;;;5265969;28;20415;-69
2022/05/31 00:30:01;;;;;;;7.57;4.05;;;8.70;99.90;;;;;;5245979;28;20924;-69
2022/05/31 00:32:37;;;;;;;4.50;4.05;;;8.70;99.90;;;;;;5262567;28;20039;-67
2022/05/31 00:35:15;;;;;;;5.10;4.60;;;8.70;99.90;;;;;;5255322;28;20086;-67
2022/05/31 00:37:49;;;;;;;5.88;4.40;;;8.70;99.90;;;;;;5267272;28;20058;-68
2022/05/31 00:40:25;;;;;;;5.82;3.78;;;8.60;99.90;;;;;;5266041;28;20048;-68
2022/05/31 00:43:01;;;;;;;5.97;3.90;;;8.70;99.90;;;;;;5255897;28;20056;-68
2022/05/31 00:45:49;;;;;;;5.47;4.40;;;8.80;99.90;;;;;;5267028;28;20047;-69
2022/05/31 00:48:27;;;;;;;5.30;4.55;;;8.70;99.90;;;;;;5266524;28;20051;-68
2022/05/31 00:51:09;;;;;;;5.20;4.35;;;8.70;99.90;;;;;;5262189;28;20617;-68
2022/05/31 00:54:11;;;;;;;8.05;4.15;;;8.70;99.90;;;;;;5265785;28;20499;-69
2022/05/31 00:56:46;;;;;;;4.68;4.28;;;8.60;99.90;;;;;;5258567;28;20070;-68
2022/05/31 00:59:27;;;;;;;7.93;4.63;;;8.60;99.90;;;;;;5245857;28;20050;-67
2022/05/31 01:02:00;;;;;;;4.95;4.45;;;8.60;99.90;;;;;;5163138;28;20051;-68
2022/05/31 01:04:43;;;;;;;5.13;4.25;;;8.50;99.90;;;;;;5263931;28;20048;-67
2022/05/31 01:07:18;;;;;;;5.85;4.53;;;8.50;99.90;;;;;;5195510;28;20121;-68
2022/05/31 01:09:51;;;;;;;7.53;4.10;;;8.50;99.90;;;;;;5261588;28;20036;-68
2022/05/31 01:12:45;;;;;;;5.40;4.22;;;8.50;99.90;;;;;;5260527;28;22060;-68
2022/05/31 01:15:36;;;;;;;5.38;4.85;;;8.50;99.90;;;;;;5262703;28;20074;-69
2022/05/31 01:18:33;;;;;;;6.22;4.50;;;8.50;99.90;;;;;;5238986;28;20547;-68
2022/05/31 01:21:37;;;;;;;7.63;4.20;;;8.40;99.90;;;;;;5212578;28;20058;-68
2022/05/31 01:24:24;;;;;;;4.88;4.35;;;8.40;99.90;;;;;;5244955;28;20055;-68
2022/05/31 01:27:29;;;;;;;5.82;4.30;;;8.40;99.90;;;;;;5255382;28;20788;-68
2022/05/31 01:30:05;;;;;;;6.18;3.97;;;8.40;99.90;;;;;;5238645;28;20519;-68
2022/05/31 01:32:46;;;;;;;5.25;4.60;;;8.40;99.90;;;;;;5248234;28;20082;-67
2022/05/31 01:35:28;;;;;;;5.15;3.80;;;8.50;99.90;;;;;;5229064;28;20054;-68
2022/05/31 01:38:12;;;;;;;5.00;4.50;;;8.60;99.90;;;;;;5265780;28;20578;-68
2022/05/31 01:40:57;;;;;;;5.72;4.25;;;8.50;99.90;;;;;;5260159;28;20047;-68
2022/05/31 01:43:30;;;;;;;5.95;4.35;;;8.50;99.90;;;;;;5242307;28;20048;-68
2022/05/31 01:46:08;;;;;;;4.97;4.57;;;8.50;99.90;;;;;;5255305;28;20074;-69
2022/05/31 01:48:42;;;;;;;5.25;4.50;;;8.40;99.90;;;;;;5265818;28;20065;-69
2022/05/31 01:51:15;;;;;;;4.78;3.90;;;8.40;99.90;;;;;;5264921;28;20044;-70
2022/05/31 01:53:49;;;;;;;5.15;4.45;;;8.40;99.90;;;;;;5263070;28;20051;-69
2022/05/31 01:56:22;;;;;;;8.10;4.28;;;8.40;99.90;;;;;;5224089;28;20040;-68
2022/05/31 01:58:56;;;;;;;6.13;4.47;;;8.40;99.90;;;;;;5243926;28;20070;-69
2022/05/31 02:01:35;;;;;;;6.57;4.10;;;8.40;99.90;;;;;;5245235;28;20491;-67
2022/05/31 02:04:09;;;;;;;5.60;4.03;;;8.30;99.90;;;;;;5232187;28;20486;-69
2022/05/31 02:06:42;;;;;;;5.13;4.63;;;8.30;99.90;;;;;;5245539;28;20085;-69
2022/05/31 02:09:15;;;;;;;5.82;4.35;;;8.30;99.90;;;;;;5262624;28;20054;-70
2022/05/31 02:11:50;;;;;;;8.35;4.50;;;8.30;99.90;;;;;;5251845;28;20043;-69
2022/05/31 02:14:29;;;;;;;7.53;5.13;;;8.40;99.90;;;;;;5237915;28;20044;-68
2022/05/31 02:17:02;;;;;;;5.00;4.50;;;8.30;99.90;;;;;;5266522;28;20032;-68
2022/05/31 02:19:53;;;;;;;6.05;4.60;;;8.30;99.90;;;;;;5265319;28;20047;-68
2022/05/31 02:22:35;;;;;;;6.95;3.67;;;8.30;99.90;;;;;;5243129;28;20058;-67
2022/05/31 02:25:09;;;;;;;5.18;4.00;;;8.20;99.90;;;;;;5224637;28;20047;-68
2022/05/31 02:27:42;;;;;;;4.60;4.13;;;8.20;99.90;;;;;;5235573;28;20840;-69
2022/05/31 02:30:16;;;;;;;6.65;4.43;;;8.10;99.90;;;;;;5240778;28;20052;-69
2022/05/31 02:32:49;;;;;;;4.33;3.93;;;8.20;99.90;;;;;;5267495;28;20043;-70
2022/05/31 02:35:21;;;;;;;6.10;5.03;;;8.10;99.90;;;;;;5267544;28;20059;-69
2022/05/31 02:37:55;;;;;;;6.65;4.60;;;8.10;99.90;;;;;;5266288;28;20043;-68
2022/05/31 02:40:28;;;;;;;6.72;4.50;;;8.10;99.90;;;;;;5263567;28;20062;-69
2022/05/31 02:43:01;;;;;;;6.10;4.85;;;8.10;99.90;;;;;;5245818;28;20047;-68
2022/05/31 02:45:33;;;;;;;5.32;4.57;;;8.20;99.90;;;;;;5269106;28;20043;-69
2022/05/31 02:48:06;;;;;;;7.47;4.87;;;8.20;99.90;;;;;;5266562;28;20125;-69
2022/05/31 02:50:40;;;;;;;5.03;4.53;;;8.30;99.90;;;;;;5268890;28;20518;-69
2022/05/31 02:53:12;;;;;;;5.18;4.50;;;8.30;99.90;;;;;;5224500;28;20039;-69
2022/05/31 02:55:45;;;;;;;6.65;4.32;;;8.20;99.90;;;;;;5239678;28;20407;-68
2022/05/31 02:58:36;;;;;;;6.20;3.70;;;8.10;99.90;;;;;;5256340;28;20075;-69
2022/05/31 03:01:37;;;;;;;6.63;4.35;;;8.10;99.90;;;;;;5262808;28;20044;-69
2022/05/31 03:04:28;;;;;;;9.23;4.55;;;8.10;99.90;;;;;;5263320;28;20058;-70
2022/05/31 03:07:20;;;;;;;6.00;4.72;;;8.10;99.90;;;;;;5260224;28;20063;-69
2022/05/31 03:10:16;;;;;;;5.55;4.97;;;8.10;99.90;;;;;;5243944;28;20665;-69
2022/05/31 03:12:50;;;;;;;7.78;5.18;;;8.10;99.90;;;;;;5223973;28;20519;-69
2022/05/31 03:15:25;;;;;;;5.88;4.57;;;8.00;99.90;;;;;;5258391;28;20051;-68
2022/05/31 03:18:10;;;;;;;5.68;5.07;;;8.00;99.90;;;;;;5244559;28;20040;-69
2022/05/31 03:20:48;;;;;;;5.03;4.53;;;8.00;99.90;;;;;;5263498;28;20055;-68
2022/05/31 03:23:32;;;;;;;8.85;5.07;;;8.00;99.90;;;;;;5258519;28;20043;-68
2022/05/31 03:26:08;;;;;;;6.47;5.00;;;8.00;99.90;;;;;;5250623;28;20055;-69
2022/05/31 03:28:40;;;;;;;8.23;5.50;;;8.00;99.90;;;;;;5259509;28;20056;-69
2022/05/31 03:31:13;;;;;;;5.68;4.68;;;8.00;99.90;;;;;;5255718;28;20055;-70
2022/05/31 03:33:46;;;;;;;9.37;5.33;;;8.10;99.90;;;;;;5258288;28;20046;-69
2022/05/31 03:36:19;;;;;;;6.30;5.05;;;8.10;99.90;;;;;;5235920;28;20542;-69
2022/05/31 03:39:03;;;;;;;7.15;5.53;;;8.10;99.90;;;;;;5234340;28;20036;-70
2022/05/31 03:41:36;;;;;;;9.85;5.20;;;8.10;99.90;;;;;;5237682;28;20606;-68
2022/05/31 03:44:10;;;;;;;10.50;5.72;;;8.10;99.90;;;;;;5240610;28;20043;-69
2022/05/31 03:47:06;;;;;;;8.18;5.47;;;8.20;99.90;;;;;;5224958;28;20052;-70
2022/05/31 03:49:57;;;;;;;6.28;5.30;;;8.20;99.90;;;;;;5248519;28;20044;-68
2022/05/31 03:52:31;;;;;;;5.80;4.78;;;8.20;99.90;;;;;;5232842;28;21890;-68
2022/05/31 03:55:06;;;;;;;6.18;5.38;;;8.20;99.90;;;;;;5208985;28;20036;-69
2022/05/31 03:57:53;;;;;;;5.93;5.32;;;8.30;99.90;;;;;;5225983;28;20273;-69
2022/05/31 04:00:50;;;;;;;7.80;5.55;;;8.30;99.90;;;;;;5240179;28;20613;-70
2022/05/31 04:03:29;;;;;;;6.20;5.25;;;8.30;99.90;;;;;;5239131;28;21773;-68
2022/05/31 04:06:09;;;;;;;8.43;5.88;;;8.30;99.90;;;;;;5255211;28;21137;-70
2022/05/31 04:08:41;;;;;;;7.43;5.40;;;8.40;99.90;;;;;;5224220;28;20048;-70
2022/05/31 04:11:16;;;;;;;6.45;5.15;;;8.40;99.90;;;;;;5243148;28;20920;-69
2022/05/31 04:13:48;;;;;;;7.15;5.40;;;8.40;99.90;;;;;;5250642;28;20047;-67
2022/05/31 04:16:43;;;;;;;7.15;4.82;;;8.50;99.90;;;;;;5224252;28;20052;-68
2022/05/31 04:19:16;;;;;;;7.20;5.53;;;8.60;99.90;;;;;;5231684;28;20036;-68
2022/05/31 04:21:49;;;;;;;5.50;4.97;;;8.70;99.90;;;;;;5256569;28;20048;-70
2022/05/31 04:24:22;;;;;;;7.60;4.72;;;8.80;99.90;;;;;;5229322;28;20051;-69
2022/05/31 04:27:17;;;;;;;6.75;5.13;;;8.90;99.90;;;;;;5255513;28;20051;-70
2022/05/31 04:30:19;;;;;;;8.27;5.13;;;8.90;99.90;;;;;;5186983;28;20066;-68
2022/05/31 04:33:10;;;;;;;6.72;5.10;;;9.10;99.90;;;;;;5256374;27;20430;-69
2022/05/31 04:35:42;;;;;;;5.40;4.80;;;9.10;99.90;;;;;;5233833;28;20039;-68
2022/05/31 04:38:15;;;;;;;7.40;5.38;;;9.20;99.90;;;;;;5233988;28;20052;-68
2022/05/31 04:40:48;;;;;;;6.47;4.50;;;9.20;99.90;;;;;;5251754;27;20036;-68
2022/05/31 04:43:23;;;;;;;6.72;4.40;;;9.30;99.90;;;;;;5255972;28;20071;-68
2022/05/31 04:46:17;;;;;;;7.68;4.78;;;9.40;99.90;;;;;;5252995;28;20526;-69
2022/05/31 04:48:57;;;;;;;5.22;4.25;;;9.50;99.90;;;;;;5236769;28;20042;-67
2022/05/31 04:51:32;;;;;;;5.32;4.35;;;9.50;99.90;;;;;;5238287;28;20051;-69
2022/05/31 04:54:05;;;;;;;4.57;4.18;;;9.60;99.90;;;;;;5228826;28;20050;-69
2022/05/31 04:56:53;;;;;;;5.07;4.28;;;9.70;99.90;;;;;;5241395;28;20515;-68
2022/05/31 04:59:27;;;;;;;8.88;4.00;;;9.80;99.90;;;;;;5235643;27;20044;-68
2022/05/31 05:01:59;;;;;;;6.82;4.15;;;9.80;99.90;;;;;;5199679;28;20060;-68
2022/05/31 05:05:01;;;;;;;5.30;4.20;;;10.00;99.90;;;;;;5231294;27;20260;-68
2022/05/31 05:07:54;;;;;;;6.80;3.95;;;10.10;99.90;;;;;;5235236;28;20047;-68
2022/05/31 05:10:29;;;;;;;4.35;3.67;;;10.10;99.90;;;;;;5232666;28;20051;-68
2022/05/31 05:13:10;;;;;;;7.93;3.95;;;10.20;99.90;;;;;;5233451;28;20036;-67
2022/05/31 05:16:01;;;;;;;7.25;4.88;;;10.30;99.90;;;;;;5256176;27;20398;-69
2022/05/31 05:18:39;;;;;;;3.90;3.50;;;10.30;99.90;;;;;;5229197;28;20046;-68
2022/05/31 05:21:14;;;;;;;5.35;3.95;;;10.30;99.90;;;;;;5234740;28;20047;-67
2022/05/31 05:23:48;;;;;;;4.57;3.78;;;10.50;99.90;;;;;;5216917;28;20051;-68
2022/05/31 05:26:30;;;;;;;5.07;4.15;;;10.70;99.90;;;;;;5200536;28;20047;-71
2022/05/31 05:32:13;;;;;;;3.58;3.28;;;10.80;99.90;;;;;;5247994;28;20039;-71
2022/05/31 05:35:05;;;;;;;3.88;3.20;;;10.80;99.90;;;;;;5253183;28;20047;-72
2022/05/31 05:37:38;;;;;;;;;;;10.80;99.90;;;;;;5238772;28;20518;-70
2022/05/31 05:40:12;;;;;;;4.10;2.97;;;10.90;99.90;;;;;;5242789;28;19927;-70
2022/05/31 05:42:52;;;;;;;4.80;2.90;;;11.00;99.90;;;;;;5243417;28;20039;-72
2022/05/31 05:45:45;;;;;;;4.20;3.33;;;11.10;99.90;;;;;;5236127;28;20056;-70
2022/05/31 05:48:17;;;;;;;4.00;2.75;;;11.20;99.90;;;;;;5243555;28;21750;-71
2022/05/31 05:50:51;;;;;;;3.88;3.20;;;11.30;99.90;;;;;;5258179;28;20056;-72
2022/05/31 05:54:02;;;;;;;5.82;3.17;;;11.40;99.90;;;;;;5262241;28;20414;-72
2022/05/31 05:56:54;;;;;;;3.92;3.22;;;11.50;99.90;;;;;;5263224;28;20050;-73
2022/05/31 05:59:45;;;;;;;3.75;3.10;;;11.70;99.90;;;;;;5264567;28;20054;-72
2022/05/31 06:02:51;;;;;;;5.50;3.03;;;11.80;99.90;;;;;;5226054;28;20055;-70
2022/05/31 06:05:47;;;;;;;4.20;3.13;;;11.90;99.90;;;;;;5234767;28;20059;-70
2022/05/31 06:08:32;;;;;;;6.70;2.90;;;12.00;99.90;;;;;;5267303;28;20055;-71
2022/05/31 06:11:12;;;;;;;3.03;2.72;;;12.30;99.90;;;;;;5265222;28;20051;-70
2022/05/31 06:13:57;;;;;;;6.28;3.00;;;12.40;99.90;;;;;;5214990;28;20047;-69
2022/05/31 06:16:33;;;;;;;5.43;2.45;;;12.60;99.90;;;;;;5270672;28;20074;-70
2022/05/31 06:19:14;;;;;;;5.05;2.72;;;12.80;99.90;;;;;;5225946;28;20040;-70
2022/05/31 06:21:49;;;;;;;3.72;2.53;;;13.00;99.90;;;;;;5244746;28;20472;-71
2022/05/31 06:24:37;;;;;;;3.55;2.42;;;13.10;99.90;;;;;;5251958;28;20046;-70
2022/05/31 06:27:30;;;;;;;2.78;2.05;;;13.20;99.90;;;;;;5271621;28;20047;-70
2022/05/31 06:30:04;;;;;;;2.50;2.20;;;13.40;99.90;;;;;;5267179;28;20042;-70
2022/05/31 06:32:36;;;;;;;5.78;2.00;;;13.70;99.90;;;;;;5253093;28;20495;-70
2022/05/31 06:35:09;;;;;;;3.85;2.58;;;13.80;98.30;;;;;;5268398;28;20055;-70
2022/05/31 06:38:03;;;;;;;4.63;2.63;;;13.90;97.30;;;;;;5252474;28;20648;-71
2022/05/31 06:40:39;;;;;;;6.78;2.78;;;13.80;97.10;;;;;;5247781;28;20039;-70
2022/05/31 06:43:30;;;;;;;7.68;2.67;;;13.70;97.10;;;;;;5271432;28;20039;-70
2022/05/31 06:46:22;;;;;;;3.38;2.47;;;13.80;98.20;;;;;;5269563;28;20047;-71
2022/05/31 06:49:13;;;;;;;10.52;2.75;;;13.80;97.40;;;;;;5254007;28;20044;-69
2022/05/31 06:58:32;;;;;;;4.03;3.28;;;14.10;94.80;;;;;;5253313;28;20047;-70
2022/05/31 07:01:11;;;;;;;3.42;2.45;;;14.20;95.20;;;;;;5189540;28;20044;-69
2022/05/31 07:03:44;;;;;;;3.78;2.42;;;14.40;95.10;;;;;;5234003;28;20383;-69
2022/05/31 07:06:17;;;;;;;3.13;2.63;;;14.50;94.40;;;;;;5209859;28;20655;-70
2022/05/31 07:08:55;;;;;;;5.15;2.63;;;14.60;95.00;;;;;;5251038;28;21955;-69
2022/05/31 07:11:31;;;;;;;12.05;2.63;;;14.80;94.10;;;;;;5251773;28;20059;-69
2022/05/31 07:14:26;;;;;;;7.20;2.40;;;14.90;93.70;;;;;;5268731;28;20040;-69
2022/05/31 07:17:28;;;;;;;2.50;2.28;;;15.00;92.60;;;;;;5269596;28;20644;-71
2022/05/31 07:20:04;;;;;;;4.50;2.65;;;15.10;92.80;;;;;;5265038;28;20047;-70
2022/05/31 07:22:39;;;;;;;2.30;2.05;;;15.20;91.60;;;;;;5241267;28;20288;-70
2022/05/31 07:25:29;;;;;;;5.47;2.25;;;15.20;91.60;;;;;;5233511;28;20059;-71
2022/05/31 07:28:09;;;;;;;5.43;2.15;;;15.40;90.90;;;;;;5255105;28;20044;-70
2022/05/31 07:30:42;;;;;;;2.30;2.10;;;15.60;89.70;;;;;;5270546;28;20039;-71
2022/05/31 07:33:23;;;;;;;5.60;2.42;;;15.70;88.20;;;;;;5256762;28;20058;-69
2022/05/31 07:36:14;;;;;;;4.20;2.13;;;15.70;86.00;;;;;;5237875;28;20412;-70
2022/05/31 07:39:09;;;;;;;3.65;2.25;;;15.90;87.00;;;;;;5254967;28;20047;-70
2022/05/31 07:41:45;;;;;;;4.32;2.28;;;16.20;84.70;;;;;;5256569;28;20076;-70
2022/05/31 07:44:18;;;;;;;1.88;1.70;;;16.20;83.80;;;;;;5256454;28;20051;-70
2022/05/31 07:46:51;;;;;;;2.63;2.10;;;16.30;83.60;;;;;;5210225;28;20048;-75
2022/05/31 07:49:24;;;;;;;3.58;2.15;;;16.40;81.80;;;;;;5249589;28;20040;-74
2022/05/31 07:52:09;;;;;;;1.52;1.42;;;16.50;81.80;;;;;;5231840;28;20059;-74
2022/05/31 07:55:01;;;;;;;3.13;1.88;;;16.50;80.30;;;;;;5262262;28;20047;-74
2022/05/31 08:01:13;;;;;;;3.15;1.83;;;16.70;78.50;;;;;;5270016;28;20039;-73
2022/05/31 08:03:49;;;;;;;2.85;2.15;;;16.90;77.90;;;;;;5261244;28;20047;-72
2022/05/31 08:06:24;;;;;;;2.13;1.92;;;16.90;78.60;;;;;;5247909;28;20051;-75
2022/05/31 08:08:57;;;;;;;2.92;1.80;;;17.00;78.20;;;;;;5213087;28;20051;-71
2022/05/31 08:11:32;;;;;;;5.95;2.15;;;17.20;77.20;;;;;;5261941;28;20048;-73
2022/05/31 08:14:05;;;;;;;3.20;1.55;;;17.40;76.70;;;;;;5261914;27;20044;-73
2022/05/31 08:16:38;;;;;;;3.03;1.95;;;17.30;74.90;;;;;;5262182;27;20373;-73
2022/05/31 08:19:11;;;;;;;5.05;1.73;;;17.30;70.00;;;;;;5249479;28;20027;-73
2022/05/31 08:21:43;;;;;;;3.97;1.80;;;17.20;71.50;;;;;;5264474;28;20145;-73
2022/05/31 08:24:15;;;;;;;4.40;1.70;;;17.20;71.60;;;;;;5250017;28;20048;-72
2022/05/31 08:27:08;;;;;;;3.25;2.17;;;17.30;73.50;;;;;;5261281;28;20058;-73
2022/05/31 08:29:42;;;;;;;4.45;1.60;;;17.40;71.00;;;;;;5262592;28;20043;-73
2022/05/31 08:32:14;;;;;;;4.13;1.40;;;17.40;70.00;;;;;;5263307;28;20048;-72
2022/05/31 08:34:48;;;;;;;5.88;1.73;;;17.50;71.10;;;;;;5242911;28;20054;-72
2022/05/31 08:37:21;;;;;;;4.30;1.27;;;17.80;69.90;;;;;;5267438;28;20044;-73
2022/05/31 08:39:53;;;;;;;3.67;1.45;;;18.00;66.80;;;;;;5264736;28;20315;-73
2022/05/31 08:42:37;;;;;;;5.57;1.40;;;18.10;67.10;;;;;;5264118;28;20051;-72
2022/05/31 08:45:18;;;;;;;;;;;18.20;68.20;;;;;;5248659;27;20047;-73
2022/05/31 08:48:03;;;;;;;3.55;1.35;;;18.10;67.00;;;;;;5225451;28;20388;-71
2022/05/31 08:56:56;;;;;;;3.80;1.50;;;18.10;65.50;;;;;;5230925;28;20044;-72
2022/05/31 08:56:56;;;;;;;2.42;1.42;;;18.10;66.00;;;;;;5189750;28;20411;-72
2022/05/31 08:59:50;;;;;;;5.47;1.60;;;18.20;65.70;;;;;;5248158;28;20047;-73
2022/05/31 09:02:32;;;;;;;3.08;1.60;;;18.40;65.40;;;;;;5262221;28;20671;-72
2022/05/31 09:05:32;;;;;;;2.45;1.30;;;18.50;66.90;;;;;;5256991;28;20039;-73
2022/05/31 09:08:24;;;;;;;1.98;1.58;;;18.60;67.80;;;;;;5260344;28;20039;-73
2022/05/31 09:10:56;;;;;;;9.98;3.72;;;18.80;66.00;;;;;;5248851;27;20548;-73
2022/05/31 09:13:54;;;;;;;2.15;1.40;;;18.80;66.30;;;;;;5237001;28;20047;-72
2022/05/31 09:16:49;;;;;;;5.32;1.40;;;18.80;65.10;;;;;;5242721;28;20422;-73
2022/05/31 09:19:44;;;;;;;2.90;1.50;;;18.90;66.90;;;;;;5264408;28;20047;-73
2022/05/31 09:22:16;;;;;;;1.95;1.42;;;19.00;68.00;;;;;;5264883;28;20044;-73
2022/05/31 09:24:49;;;;;;;2.67;1.60;;;19.10;66.00;;;;;;5265349;28;21103;-71
2022/05/31 09:27:37;;;;;;;2.08;1.45;;;19.20;64.60;;;;;;5261409;28;20047;-72
2022/05/31 09:30:24;;;;;;;3.50;1.30;;;19.30;64.90;;;;;;5261720;28;20051;-71
2022/05/31 09:33:12;;;;;;;3.40;1.65;;;19.30;65.30;;;;;;5256730;27;20590;-70
2022/05/31 09:36:19;;;;;;;2.38;1.58;;;19.40;65.50;;;;;;5242427;28;20570;-71
2022/05/31 09:39:08;;;;;;;2.08;1.50;;;19.50;64.30;;;;;;5257185;28;20063;-72
2022/05/31 09:42:00;;;;;;;2.40;1.70;;;19.60;65.40;;;;;;5252792;28;20129;-72
2022/05/31 09:44:42;;;;;;;2.30;1.30;;;19.70;64.60;;;;;;5262355;28;20044;-72
2022/05/31 09:47:25;;;;;;;2.72;1.40;;;19.80;65.10;;;;;;5260809;28;20684;-72
2022/05/31 09:49:58;;;;;;;2.67;1.25;;;19.80;63.50;;;;;;5269576;28;21015;-72
2022/05/31 09:52:42;;;;;;;2.50;1.50;;;19.70;62.80;;;;;;5270620;28;20098;-71
2022/05/31 09:58:38;;;;;;;4.40;1.80;;;19.80;62.60;;;;;;5259603;28;20059;-72
2022/05/31 10:01:54;;;;;;;3.55;1.40;;;19.90;61.40;;;;;;5191507;28;20794;-72
2022/05/31 10:04:31;;;;;;;3.88;1.55;;;20.00;61.10;;;;;;5177103;28;20060;-71
2022/05/31 10:07:05;;;;;;;;;;;20.10;60.10;;;;;;5233547;28;20062;-71
2022/05/31 10:09:48;;;;;;;3.40;1.40;;;20.00;59.20;;;;;;5260961;28;19923;-72
2022/05/31 10:12:31;;;;;;;1.55;1.40;;;20.10;61.60;;;;;;5247551;28;20059;-72
2022/05/31 10:15:06;;;;;;;2.75;1.83;;;20.30;61.20;;;;;;5185853;28;20046;-71
2022/05/31 10:17:44;;;;;;;2.63;1.70;;;20.50;60.90;;;;;;5263963;28;20063;-72
2022/05/31 10:20:27;;;;;;;1.63;1.33;;;20.70;60.60;;;;;;5160209;28;20047;-71
2022/05/31 10:23:15;;;;;;;1.40;1.30;;;21.00;62.70;;;;;;5243038;28;20055;-72
2022/05/31 10:26:06;;;;;;;2.75;1.67;;;21.40;58.80;;;;;;5261527;28;20317;-72
2022/05/31 10:29:14;;;;;;;1.65;1.30;;;21.70;59.30;;;;;;5266794;28;20088;-72
2022/05/31 10:32:33;;;;;;;3.70;1.85;;;22.10;58.10;;;;;;5259346;28;20235;-72
2022/05/31 10:35:29;;;;;;;2.35;1.63;;;22.40;55.80;;;;;;5252068;28;20044;-71
2022/05/31 10:38:10;;;;;;;2.10;1.60;;;22.40;57.00;;;;;;5235104;28;20926;-72
2022/05/31 10:40:57;;;;;;;1.85;1.48;;;22.90;57.70;;;;;;5253392;28;20044;-72
2022/05/31 10:43:45;;;;;;;4.05;1.40;;;22.90;54.70;;;;;;5236506;28;20047;-71
2022/05/31 10:46:35;;;;;;;3.10;1.50;;;22.90;56.30;;;;;;5257377;28;20047;-71
2022/05/31 10:49:14;;;;;;;4.35;1.70;;;23.20;56.80;;;;;;5258312;28;20047;-72
2022/05/31 10:52:00;;;;;;;2.22;1.40;;;23.40;53.20;;;;;;5239749;28;20048;-72
2022/05/31 10:54:52;;;;;;;1.98;1.42;;;23.40;55.00;;;;;;5249225;28;20070;-72
2022/05/31 10:57:55;;;;;;;4.90;1.60;;;23.50;57.10;;;;;;5264579;28;20036;-73
2022/05/31 11:00:42;;;;;;;3.83;1.58;;;24.20;55.80;;;;;;5259455;28;20040;-71
2022/05/31 11:03:15;;;;;;;2.50;1.48;;;24.70;54.90;;;;;;5240432;28;20044;-72
2022/05/31 11:06:14;;;;;;;2.55;1.50;;;25.20;54.60;;;;;;5257937;28;20071;-72
2022/05/31 11:12:12;;;;;;;4.22;1.50;;;25.50;51.10;;;;;;5262967;28;20048;-72
2022/05/31 11:14:50;;;;;;;1.98;1.30;;;25.70;50.40;;;;;;5252685;28;20052;-71
2022/05/31 11:17:29;;;;;;;3.30;1.50;;;25.60;51.80;;;;;;5240438;28;20498;-72
2022/05/31 11:20:10;;;;;;;3.30;1.45;;;25.90;51.10;;;;;;5259059;28;20043;-72
2022/05/31 11:23:01;;;;;;;3.30;1.80;;;25.50;51.50;;;;;;5260123;28;22026;-71
2022/05/31 11:25:52;;;;;;;3.17;1.42;;;25.50;50.20;;;;;;5228675;28;21383;-70
2022/05/31 11:28:53;;;;;;;1.88;1.58;;;25.70;49.50;;;;;;5241940;28;20039;-71
2022/05/31 11:31:45;;;;;;;1.70;1.42;;;25.90;49.20;;;;;;5255362;28;20052;-71
2022/05/31 11:34:29;;;;;;;2.25;1.70;;;25.90;49.10;;;;;;5239026;28;20682;-72
2022/05/31 11:37:12;;;;;;;3.15;1.50;;;25.50;49.20;;;;;;5250269;28;20048;-72
2022/05/31 11:40:07;;;;;;;2.38;1.58;;;25.10;50.40;;;;;;5255370;28;20043;-71
2022/05/31 11:42:51;;;;;;;3.95;1.60;;;25.00;51.20;;;;;;5255140;28;20048;-71
2022/05/31 11:45:32;;;;;;;4.75;1.67;;;24.70;51.50;;;;;;5230092;28;20900;-71
2022/05/31 11:48:16;;;;;;;2.53;1.40;;;24.40;53.00;;;;;;5251164;28;20052;-71
2022/05/31 11:51:09;;;;;;;2.67;1.65;;;24.00;53.50;;;;;;5257372;28;20055;-71
2022/05/31 11:54:02;;;;;;;4.03;1.50;;;23.90;55.40;;;;;;5242832;28;20059;-71
2022/05/31 11:56:47;;;;;;;2.67;1.70;;;23.90;55.40;;;;;;5231259;28;20395;-75
2022/05/31 11:59:44;;;;;;;3.20;2.00;;;23.90;54.40;;;;;;5227624;28;20063;-76
2022/05/31 12:02:32;;;;;;;5.18;1.80;;;24.10;49.90;;;;;;5250679;28;20046;-75
2022/05/31 12:05:25;;;;;;;4.32;1.80;;;24.20;51.60;;;;;;5239025;28;20063;-76
2022/05/31 12:08:11;;;;;;;5.20;2.10;;;24.30;50.20;;;;;;5223658;28;20047;-75
2022/05/31 12:10:49;;;;;;;3.08;1.77;;;24.60;49.80;;;;;;5221219;28;20047;-75
2022/05/31 12:13:23;;;;;;;4.18;2.13;;;24.80;49.00;;;;;;5216958;28;20051;-76
2022/05/31 12:15:57;;;;;;;5.45;2.13;;;25.30;48.40;;;;;;5238191;28;20996;-75
2022/05/31 12:18:49;;;;;;;7.90;2.38;;;25.60;48.50;;;;;;5226229;28;20043;-75
2022/05/31 12:21:27;;;;;;;5.05;1.90;;;25.50;46.90;;;;;;5222893;28;20051;-75
2022/05/31 12:24:22;;;;;;;7.85;2.08;;;25.40;48.10;;;;;;5231977;27;20821;-75
2022/05/31 12:27:06;;;;;;;7.30;2.03;;;25.20;47.60;;;;;;5240508;28;20078;-75
2022/05/31 12:29:42;;;;;;;4.07;2.28;;;25.10;47.10;;;;;;5233979;28;20048;-75
2022/05/31 12:32:20;;;;;;;2.67;1.70;;;24.70;47.70;;;;;;5227829;28;20489;-75
2022/05/31 12:34:57;;;;;;;2.97;1.70;;;24.60;48.80;;;;;;5224926;28;20050;-75
2022/05/31 12:37:50;;;;;;;4.28;1.70;;;24.70;48.80;;;;;;5227879;28;20059;-75
2022/05/31 12:40:33;;;;;;;2.75;1.83;;;24.90;48.10;;;;;;5225838;28;20052;-75
2022/05/31 12:43:08;;;;;;;4.85;2.25;;;24.70;48.50;;;;;;5228182;27;20071;-75
2022/05/31 12:45:44;;;;;;;3.75;2.00;;;24.50;49.50;;;;;;5225231;28;20040;-75
2022/05/31 12:48:17;;;;;;;3.15;1.73;;;24.30;48.70;;;;;;5241180;28;20086;-75
2022/05/31 12:50:55;;;;;;;7.35;2.10;;;24.20;49.80;;;;;;5237946;28;20043;-76
2022/05/31 12:53:50;;;;;;;4.65;1.80;;;24.30;51.10;;;;;;5224380;28;20048;-74
2022/05/31 12:56:37;;;;;;;6.05;2.22;;;24.30;50.10;;;;;;5207991;28;20099;-74
2022/05/31 12:59:09;;;;;;;5.88;2.28;;;24.30;50.80;;;;;;5231653;27;20043;-74
2022/05/31 13:01:56;;;;;;;3.70;2.00;;;24.30;50.80;;;;;;5243458;28;20613;-74
2022/05/31 13:04:33;;;;;;;5.05;1.83;;;24.40;50.40;;;;;;5244130;28;20059;-74
2022/05/31 13:07:11;;;;;;;7.47;2.10;;;24.40;50.50;;;;;;5254211;28;20055;-72
2022/05/31 13:09:46;;;;;;;5.68;2.15;;;24.40;49.50;;;;;;5230751;28;20450;-75
2022/05/31 13:21:11;;;;;;;6.97;2.30;;;24.60;47.60;;;;;;5263059;28;20044;-74
2022/05/31 13:24:07;;;;;;;5.47;1.85;;;24.50;49.20;;;;;;5233593;28;20048;-74
2022/05/31 13:26:40;;;;;;;3.38;1.77;;;24.30;48.90;;;;;;5255743;28;20044;-74
2022/05/31 13:29:14;;;;;;;4.25;1.75;;;24.20;47.80;;;;;;5254214;28;20422;-74
2022/05/31 13:31:55;;;;;;;5.68;1.77;;;24.00;49.80;;;;;;5255798;27;20063;-74
2022/05/31 13:34:30;;;;;;;3.42;1.75;;;24.00;48.00;;;;;;5196328;28;20052;-74
2022/05/31 13:37:23;;;;;;;5.93;2.20;;;23.90;49.00;;;;;;5243877;28;20050;-74
2022/05/31 13:39:59;;;;;;;4.03;2.10;;;23.70;50.60;;;;;;5229078;28;20035;-74
2022/05/31 13:42:36;;;;;;;9.82;2.67;;;23.70;51.20;;;;;;5245885;28;20182;-75
2022/05/31 13:45:14;;;;;;;3.88;1.80;;;23.60;51.70;;;;;;5227124;27;20051;-74
2022/05/31 13:47:54;;;;;;;4.10;1.90;;;23.50;52.70;;;;;;5249589;28;20055;-75
2022/05/31 13:50:39;;;;;;;4.57;2.13;;;23.30;51.40;;;;;;5233824;28;20344;-75
2022/05/31 13:53:12;;;;;;;3.80;1.88;;;22.90;51.20;;;;;;5165468;27;20044;-75
2022/05/31 13:55:44;;;;;;;5.90;1.92;;;22.90;52.20;;;;;;5233587;28;20058;-75
2022/05/31 13:58:17;;;;;;;3.65;2.00;;;22.70;52.90;;;;;;5232274;28;20562;-75
2022/05/31 14:00:49;;;;;;;4.75;1.85;;;22.70;53.30;;;;;;5239519;28;20040;-73
2022/05/31 14:03:40;;;;;;;6.32;1.95;;;22.70;52.90;;;;;;5252765;28;20051;-74
2022/05/31 14:06:16;;;;;;;1.70;1.58;;;22.40;52.20;;;;;;5185003;28;20054;-74
2022/05/31 14:08:53;;;;;;;3.03;1.52;;;22.40;53.30;;;;;;5240103;28;20043;-75
2022/05/31 14:11:45;;;;;;;3.72;1.80;;;22.20;52.80;;;;;;5225325;28;20086;-77
2022/05/31 14:14:24;;;;;;;5.78;2.20;;;22.10;54.10;;;;;;5202128;28;20931;-74
2022/05/31 14:16:58;;;;;;;6.22;1.88;;;21.80;56.40;;;;;;5242987;27;20701;-75
2022/05/31 14:19:34;;;;;;;4.13;2.17;;;21.70;55.60;;;;;;5241157;28;20048;-74
2022/05/31 14:22:34;;;;;;;7.68;2.13;;;21.50;55.40;;;;;;5209237;28;20050;-76
2022/05/31 14:25:09;;;;;;;5.57;2.17;;;21.50;56.20;;;;;;5230627;28;22021;-75
2022/05/31 14:27:42;;;;;;;2.25;1.85;;;21.40;56.80;;;;;;5232708;28;20051;-74
2022/05/31 14:30:30;;;;;;;4.20;1.70;;;21.40;58.00;;;;;;5222205;28;20074;-76
2022/05/31 14:33:06;;;;;;;2.92;1.65;;;21.30;58.30;;;;;;5228570;28;20779;-75
2022/05/31 14:35:48;;;;;;;4.22;1.92;;;21.10;56.10;;;;;;5202040;28;20048;-75
2022/05/31 14:38:36;;;;;;;5.78;2.03;;;21.20;57.60;;;;;;5229813;28;20447;-75